Time;durP1;ratioP1;P1;durP2;ratioP2;P2;SDS_P1;SDS_P2;PMS_P1;PMS_P2;Temp;Humidity;BMP_temperature;BMP_pressure;BME280_temperature;BME280_humidity;BME280_pressure;Samples;Min_cycle;Max_cycle;Signal;HPM_P1;HPM_P2
2023/04/01 00:02:24;;;;;;;11.30;4.47;;;10.00;99.90;;;;;;5038025;28;20037;-82
2023/04/01 00:04:50;;;;;;;8.73;3.57;;;10.00;99.90;;;;;;5038078;28;20029;-83
2023/04/01 00:07:16;;;;;;;10.17;3.47;;;9.90;99.90;;;;;;5021104;28;20029;-83
2023/04/01 00:09:41;;;;;;;9.67;3.47;;;9.90;99.90;;;;;;5037371;28;20454;-82
2023/04/01 00:12:07;;;;;;;13.07;4.00;;;9.90;99.90;;;;;;5037498;28;20041;-82
2023/04/01 00:14:32;;;;;;;12.37;4.77;;;9.90;99.90;;;;;;5053882;28;20153;-82
2023/04/01 00:16:58;;;;;;;12.43;4.67;;;10.00;99.90;;;;;;5037534;28;20127;-82
2023/04/01 00:19:24;;;;;;;13.40;4.60;;;9.90;99.90;;;;;;5037715;28;20037;-82
2023/04/01 00:21:49;;;;;;;11.53;5.10;;;10.00;99.90;;;;;;5055172;28;20033;-83
2023/04/01 00:24:15;;;;;;;14.37;5.60;;;10.00;99.90;;;;;;5037744;28;20473;-83
2023/04/01 00:26:42;;;;;;;13.13;5.03;;;10.00;99.90;;;;;;5053823;28;20040;-84
2023/04/01 00:29:08;;;;;;;11.70;6.20;;;9.90;99.90;;;;;;5020922;28;20124;-82
2023/04/01 00:31:33;;;;;;;13.63;6.13;;;10.00;99.90;;;;;;5053425;28;20108;-82
2023/04/01 00:33:59;;;;;;;14.40;6.50;;;10.00;99.90;;;;;;5053669;28;20098;-82
2023/04/01 00:36:25;;;;;;;15.80;6.93;;;10.00;99.90;;;;;;5053544;28;20057;-83
2023/04/01 00:38:51;;;;;;;14.33;6.90;;;10.00;99.90;;;;;;5053515;28;20040;-83
2023/04/01 00:41:18;;;;;;;19.13;7.73;;;10.00;99.90;;;;;;5037192;28;20033;-82
2023/04/01 00:43:47;;;;;;;16.53;7.43;;;10.00;99.90;;;;;;5054737;28;20029;-82
2023/04/01 00:46:13;;;;;;;17.30;8.50;;;10.00;99.90;;;;;;5054556;28;20104;-82
2023/04/01 00:48:46;;;;;;;17.80;8.97;;;10.00;99.90;;;;;;5036685;28;20131;-82
2023/04/01 00:51:40;;;;;;;19.00;10.17;;;10.00;99.90;;;;;;5053511;28;20465;-82
2023/04/01 00:54:07;;;;;;;16.48;9.23;;;10.10;99.90;;;;;;5051597;28;20299;-82
2023/04/01 00:56:55;;;;;;;19.53;10.37;;;10.10;99.90;;;;;;5052680;28;20052;-82
2023/04/01 00:59:24;;;;;;;26.23;12.63;;;10.10;99.90;;;;;;5036428;28;20032;-81
2023/04/01 01:01:50;;;;;;;24.70;12.93;;;10.10;99.90;;;;;;5036322;28;20029;-81
2023/04/01 01:04:42;;;;;;;24.97;13.17;;;10.10;99.90;;;;;;5036625;28;20025;-81
2023/04/01 01:07:29;;;;;;;26.73;14.10;;;10.10;99.90;;;;;;5033273;28;20037;-82
2023/04/01 01:10:19;;;;;;;26.40;15.60;;;10.10;99.90;;;;;;5036616;28;20032;-82
2023/04/01 01:12:51;;;;;;;26.20;15.63;;;10.10;99.90;;;;;;5036384;28;20025;-82
2023/04/01 01:15:25;;;;;;;30.20;15.67;;;10.10;99.90;;;;;;5036481;28;20032;-81
2023/04/01 01:18:22;;;;;;;33.40;17.67;;;10.10;99.90;;;;;;5036127;28;20508;-81
2023/04/01 01:21:25;;;;;;;35.30;17.97;;;10.10;99.90;;;;;;5036095;28;20159;-81
2023/04/01 01:24:43;;;;;;;30.07;16.13;;;10.10;99.90;;;;;;5035925;28;20075;-82
2023/04/01 01:27:16;;;;;;;30.10;17.03;;;10.20;99.90;;;;;;4993013;28;20037;-82
2023/04/01 01:29:59;;;;;;;36.03;17.50;;;10.20;99.90;;;;;;5036096;28;20389;-82
2023/04/01 01:32:52;;;;;;;30.85;18.48;;;10.20;99.90;;;;;;5035668;28;20116;-82
2023/04/01 01:35:26;;;;;;;31.97;18.07;;;10.20;99.90;;;;;;5054157;28;20033;-82
2023/04/01 01:37:56;;;;;;;29.33;17.67;;;10.20;99.90;;;;;;5035682;28;20029;-81
2023/04/01 01:40:24;;;;;;;31.30;16.73;;;10.20;99.90;;;;;;5053601;28;20037;-82
2023/04/01 01:42:54;;;;;;;32.17;17.43;;;10.20;99.90;;;;;;5053679;28;20103;-81
2023/04/01 01:45:23;;;;;;;29.97;17.50;;;10.20;99.90;;;;;;5035621;28;20116;-82
2023/04/01 01:47:50;;;;;;;29.90;16.43;;;10.20;99.90;;;;;;5053398;28;20485;-82
2023/04/01 01:50:17;;;;;;;30.97;16.57;;;10.20;99.90;;;;;;5035608;28;20025;-81
2023/04/01 01:52:43;;;;;;;33.23;15.70;;;10.20;99.90;;;;;;5035601;28;20029;-82
2023/04/01 01:55:27;;;;;;;29.27;16.97;;;10.20;99.90;;;;;;5035888;28;20115;-81
2023/04/01 01:57:54;;;;;;;35.80;16.48;;;10.20;99.90;;;;;;5035289;28;20045;-81
2023/04/01 02:00:21;;;;;;;37.03;14.30;;;10.20;99.90;;;;;;5035190;28;20116;-81
2023/04/01 02:02:48;;;;;;;28.90;12.70;;;10.20;99.90;;;;;;5035389;28;20041;-82
2023/04/01 02:05:22;;;;;;;30.43;11.90;;;10.20;99.90;;;;;;5019089;28;20116;-81
2023/04/01 02:07:53;;;;;;;;;;;10.10;99.90;;;;;;5053773;28;20024;-81
2023/04/01 02:10:22;;;;;;;25.30;9.97;;;10.10;99.90;;;;;;5051573;28;19974;-81
2023/04/01 02:12:49;;;;;;;30.37;11.40;;;10.10;99.90;;;;;;5053015;28;20082;-81
2023/04/01 02:15:17;;;;;;;28.43;12.00;;;10.10;99.90;;;;;;5035552;28;20074;-81
2023/04/01 02:17:45;;;;;;;26.73;10.60;;;10.10;99.90;;;;;;5035457;28;20556;-81
2023/04/01 02:20:14;;;;;;;28.60;9.30;;;10.10;99.90;;;;;;5035341;28;20175;-81
2023/04/01 02:22:46;;;;;;;29.73;9.47;;;10.10;99.90;;;;;;5035161;28;20029;-81
2023/04/01 02:25:15;;;;;;;26.60;10.20;;;10.10;99.90;;;;;;5051736;28;20029;-81
2023/04/01 02:27:44;;;;;;;27.20;8.53;;;10.10;99.90;;;;;;5034836;28;20116;-80
2023/04/01 02:30:11;;;;;;;26.40;8.97;;;10.10;99.90;;;;;;5051756;28;20125;-81
2023/04/01 02:32:38;;;;;;;34.10;8.90;;;10.10;99.90;;;;;;5050986;28;20032;-81
2023/04/01 02:35:10;;;;;;;24.07;8.50;;;10.10;99.90;;;;;;5034826;28;20033;-81
2023/04/01 02:37:36;;;;;;;24.67;9.00;;;10.10;99.90;;;;;;5035022;28;20040;-81
2023/04/01 02:40:06;;;;;;;25.30;9.47;;;10.00;99.90;;;;;;5051551;28;20127;-81
2023/04/01 02:42:32;;;;;;;31.87;10.37;;;10.00;99.90;;;;;;5051579;28;20020;-81
2023/04/01 02:44:57;;;;;;;25.47;9.97;;;10.00;99.90;;;;;;5018906;28;20167;-81
2023/04/01 02:47:23;;;;;;;25.27;8.20;;;10.00;99.90;;;;;;5035117;28;20021;-81
2023/04/01 02:49:49;;;;;;;21.90;9.03;;;10.00;99.90;;;;;;5034951;28;20029;-81
2023/04/01 02:52:14;;;;;;;26.53;8.73;;;10.00;99.90;;;;;;5051396;28;20112;-81
2023/04/01 02:54:40;;;;;;;26.00;8.87;;;10.00;99.90;;;;;;5052384;28;20104;-81
2023/04/01 02:57:06;;;;;;;22.73;9.33;;;10.00;99.90;;;;;;5034766;28;20132;-81
2023/04/01 02:59:32;;;;;;;21.80;9.07;;;10.00;99.90;;;;;;5052847;28;20041;-81
2023/04/01 03:01:58;;;;;;;19.67;8.10;;;10.00;99.90;;;;;;5018149;28;20028;-81
2023/04/01 03:04:23;;;;;;;15.33;7.03;;;10.00;99.90;;;;;;5052480;28;20419;-81
2023/04/01 03:06:49;;;;;;;14.97;7.17;;;10.00;99.90;;;;;;5053037;28;20492;-81
2023/04/01 03:09:15;;;;;;;15.37;6.57;;;10.00;99.90;;;;;;5035113;28;20370;-81
2023/04/01 03:11:41;;;;;;;17.90;8.00;;;10.00;99.90;;;;;;5052302;28;20021;-81
2023/04/01 03:14:07;;;;;;;16.33;7.63;;;10.00;99.90;;;;;;5034623;28;20492;-81
2023/04/01 03:16:32;;;;;;;18.13;7.70;;;10.00;99.90;;;;;;5034429;28;20036;-82
2023/04/01 03:18:59;;;;;;;16.00;7.20;;;10.00;99.90;;;;;;5034374;28;20040;-81
2023/04/01 03:21:26;;;;;;;18.60;7.53;;;10.00;99.90;;;;;;5051393;28;20028;-81
2023/04/01 03:23:51;;;;;;;16.33;7.27;;;10.00;99.90;;;;;;5051031;28;20025;-81
2023/04/01 03:26:17;;;;;;;17.93;7.97;;;10.00;99.90;;;;;;5052401;28;20032;-81
2023/04/01 03:28:43;;;;;;;21.20;9.03;;;9.90;99.90;;;;;;5034786;28;20074;-81
2023/04/01 03:31:10;;;;;;;18.87;8.17;;;9.90;99.90;;;;;;5052482;28;20032;-81
2023/04/01 03:33:36;;;;;;;17.60;8.07;;;9.90;99.90;;;;;;5034732;28;20029;-81
2023/04/01 03:36:03;;;;;;;17.87;7.97;;;9.90;99.90;;;;;;5034547;28;20066;-82
2023/04/01 03:38:28;;;;;;;15.03;7.03;;;9.90;99.90;;;;;;5034587;28;20031;-81
2023/04/01 03:40:54;;;;;;;16.43;8.00;;;10.00;99.90;;;;;;5034364;28;20131;-81
2023/04/01 03:43:20;;;;;;;15.10;7.73;;;9.90;99.90;;;;;;5035933;28;20111;-81
2023/04/01 03:45:47;;;;;;;15.13;7.30;;;9.90;99.90;;;;;;5021695;28;20049;-81
2023/04/01 03:48:14;;;;;;;18.17;7.57;;;9.90;99.90;;;;;;5055779;28;20066;-81
2023/04/01 03:50:40;;;;;;;18.50;9.13;;;9.90;99.90;;;;;;5055804;28;20021;-81
2023/04/01 03:53:06;;;;;;;19.37;9.70;;;9.90;99.90;;;;;;5054490;28;20427;-81
2023/04/01 03:55:31;;;;;;;20.10;9.53;;;9.90;99.90;;;;;;5021287;28;20029;-81
2023/04/01 03:57:57;;;;;;;15.70;7.80;;;9.90;99.90;;;;;;5037649;28;20061;-82
2023/04/01 04:00:25;;;;;;;16.43;7.70;;;9.90;99.90;;;;;;5021233;28;20048;-81
2023/04/01 04:02:51;;;;;;;15.80;8.10;;;9.90;99.90;;;;;;5021845;28;20111;-82
2023/04/01 04:05:16;;;;;;;20.13;9.60;;;9.80;99.90;;;;;;5038914;28;20063;-82
2023/04/01 04:07:42;;;;;;;18.00;9.13;;;9.80;99.90;;;;;;5021286;28;20557;-81
2023/04/01 04:10:08;;;;;;;21.93;11.43;;;9.80;99.90;;;;;;5037957;28;20034;-81
2023/04/01 04:12:33;;;;;;;19.23;9.40;;;9.80;99.90;;;;;;5021272;28;20079;-82
2023/04/01 04:14:59;;;;;;;23.23;11.67;;;9.80;99.90;;;;;;5037789;28;20427;-81
2023/04/01 04:17:24;;;;;;;20.73;10.93;;;9.80;99.90;;;;;;5054172;28;20021;-81
2023/04/01 04:19:50;;;;;;;19.80;10.90;;;9.90;99.90;;;;;;5037568;28;20055;-81
2023/04/01 04:22:16;;;;;;;22.83;12.33;;;9.80;99.90;;;;;;5020853;28;20021;-82
2023/04/01 04:24:41;;;;;;;25.13;12.30;;;9.80;99.90;;;;;;5021126;28;20043;-81
2023/04/01 04:27:07;;;;;;;23.50;11.57;;;9.80;99.90;;;;;;5037312;28;20476;-81
2023/04/01 04:29:33;;;;;;;23.60;11.77;;;9.80;99.90;;;;;;5037498;28;20029;-82
2023/04/01 04:31:58;;;;;;;28.47;14.43;;;9.80;99.90;;;;;;5037335;28;20049;-80
2023/04/01 04:34:24;;;;;;;23.47;13.83;;;9.80;99.90;;;;;;5037221;28;20421;-81
2023/04/01 04:36:49;;;;;;;26.60;14.90;;;9.80;99.90;;;;;;5055123;28;20037;-81
2023/04/01 04:39:15;;;;;;;27.83;14.60;;;9.80;99.90;;;;;;5020565;28;20037;-81
2023/04/01 04:41:41;;;;;;;30.97;15.83;;;9.80;99.90;;;;;;5037044;28;20033;-82
2023/04/01 04:44:07;;;;;;;28.50;14.23;;;9.80;99.90;;;;;;5020434;28;20198;-82
2023/04/01 04:46:33;;;;;;;32.07;14.80;;;9.80;99.90;;;;;;5037170;28;20385;-82
2023/04/01 04:48:59;;;;;;;28.23;15.30;;;9.80;99.90;;;;;;5054655;28;20033;-81
2023/04/01 04:51:25;;;;;;;30.67;16.27;;;9.80;99.90;;;;;;5020207;28;20029;-81
2023/04/01 04:53:51;;;;;;;30.13;16.77;;;9.70;99.90;;;;;;5054363;28;20525;-81
2023/04/01 04:56:22;;;;;;;30.87;16.70;;;9.70;99.90;;;;;;5033705;28;20137;-81
2023/04/01 04:58:48;;;;;;;36.00;16.83;;;9.70;99.90;;;;;;5036816;28;20037;-81
2023/04/01 05:01:15;;;;;;;32.07;16.73;;;9.70;99.90;;;;;;5036165;28;20044;-81
2023/04/01 05:03:42;;;;;;;32.30;17.23;;;9.70;99.90;;;;;;5054796;28;20028;-83
2023/04/01 05:06:09;;;;;;;32.23;18.03;;;9.70;99.90;;;;;;5036610;28;20032;-83
2023/04/01 05:08:37;;;;;;;31.20;18.00;;;9.70;99.90;;;;;;5037150;28;20904;-83
2023/04/01 05:11:03;;;;;;;35.63;17.33;;;9.70;99.90;;;;;;5036045;28;20029;-83
2023/04/01 05:13:29;;;;;;;31.30;18.13;;;9.70;99.90;;;;;;5052849;28;20162;-82
2023/04/01 05:15:55;;;;;;;33.00;16.70;;;9.70;99.90;;;;;;5039898;28;20052;-82
2023/04/01 05:18:21;;;;;;;38.13;17.77;;;9.70;99.90;;;;;;5056284;28;20032;-82
2023/04/01 05:20:49;;;;;;;35.10;17.37;;;9.70;99.90;;;;;;5052684;28;20020;-82
2023/04/01 05:23:15;;;;;;;34.80;16.23;;;9.70;99.90;;;;;;5054786;28;20024;-82
2023/04/01 05:25:41;;;;;;;28.57;14.97;;;9.70;99.90;;;;;;5055003;28;20035;-83
2023/04/01 05:28:06;;;;;;;37.77;17.03;;;9.70;99.90;;;;;;5039505;28;20376;-82
2023/04/01 05:30:32;;;;;;;34.37;15.90;;;9.70;99.90;;;;;;5073936;28;20111;-82
2023/04/01 05:32:58;;;;;;;37.27;17.63;;;9.70;99.90;;;;;;5039390;28;20111;-83
2023/04/01 05:35:23;;;;;;;32.50;15.67;;;9.80;99.90;;;;;;5039440;28;20021;-82
2023/04/01 05:37:49;;;;;;;34.37;16.17;;;9.80;99.90;;;;;;5039429;28;20025;-83
2023/04/01 05:40:15;;;;;;;34.27;15.00;;;9.80;99.90;;;;;;5039168;28;20182;-83
2023/04/01 05:42:41;;;;;;;36.40;15.80;;;9.80;99.90;;;;;;5039507;28;20039;-83
2023/04/01 05:45:07;;;;;;;32.37;15.17;;;9.80;99.90;;;;;;5039441;28;20461;-82
2023/04/01 05:47:33;;;;;;;37.37;14.17;;;9.80;99.90;;;;;;5055674;28;20081;-82
2023/04/01 05:49:58;;;;;;;34.13;13.83;;;9.80;99.90;;;;;;5038868;28;20124;-83
2023/04/01 05:52:24;;;;;;;31.70;13.30;;;9.80;99.90;;;;;;5038949;28;20029;-83
2023/04/01 05:54:50;;;;;;;27.77;11.97;;;9.90;99.90;;;;;;5039301;28;20028;-83
2023/04/01 05:57:15;;;;;;;31.50;12.40;;;9.90;99.90;;;;;;5055380;28;20062;-82
2023/04/01 05:59:41;;;;;;;27.57;12.73;;;9.90;99.90;;;;;;5055333;28;20036;-82
2023/04/01 06:02:09;;;;;;;26.00;10.87;;;9.90;99.90;;;;;;5055546;28;20032;-83
2023/04/01 06:04:38;;;;;;;32.77;12.23;;;10.00;99.90;;;;;;5055487;28;20017;-82
2023/04/01 06:07:18;;;;;;;32.50;10.97;;;9.90;99.90;;;;;;5062051;28;20060;-82
2023/04/01 06:09:44;;;;;;;24.13;10.20;;;10.00;99.90;;;;;;5034330;28;20393;-82
2023/04/01 06:12:10;;;;;;;26.53;11.20;;;10.00;99.90;;;;;;5033878;28;20029;-82
2023/04/01 06:14:57;;;;;;;19.53;8.97;;;10.00;99.90;;;;;;5052947;28;20036;-83
2023/04/01 06:17:34;;;;;;;20.50;8.80;;;10.00;99.90;;;;;;5035601;28;20029;-82
2023/04/01 06:20:09;;;;;;;19.43;7.90;;;10.10;99.90;;;;;;5053690;28;20028;-82
2023/04/01 06:22:57;;;;;;;15.53;7.13;;;10.10;99.90;;;;;;5052474;28;20021;-82
2023/04/01 06:25:45;;;;;;;17.37;7.63;;;10.10;99.90;;;;;;5035013;28;20020;-81
2023/04/01 06:28:28;;;;;;;17.00;6.37;;;10.10;99.90;;;;;;5051885;28;20032;-82
2023/04/01 06:31:20;;;;;;;16.98;6.55;;;10.10;99.90;;;;;;5052675;28;20155;-81
2023/04/01 06:34:24;;;;;;;20.97;8.50;;;10.20;99.90;;;;;;5035047;28;20457;-82
2023/04/01 06:37:08;;;;;;;19.77;8.23;;;10.20;99.90;;;;;;5037394;28;20045;-82
2023/04/01 06:39:56;;;;;;;22.17;7.80;;;10.20;99.90;;;;;;5034886;28;20044;-82
2023/04/01 06:42:31;;;;;;;22.00;9.00;;;10.20;99.90;;;;;;5035303;28;20021;-82
2023/04/01 06:45:11;;;;;;;20.63;8.13;;;10.20;99.90;;;;;;5034872;28;20029;-82
2023/04/01 06:48:02;;;;;;;17.07;6.73;;;10.20;99.90;;;;;;5035503;28;20021;-82
2023/04/01 06:50:28;;;;;;;18.67;6.77;;;10.30;99.90;;;;;;5035082;28;20076;-82
2023/04/01 06:52:57;;;;;;;20.90;7.20;;;10.30;99.90;;;;;;5052756;28;20017;-82
2023/04/01 06:55:46;;;;;;;18.33;7.77;;;10.30;99.90;;;;;;5053056;28;20098;-82
2023/04/01 06:58:29;;;;;;;17.03;6.23;;;10.30;99.90;;;;;;5053022;28;20057;-82
2023/04/01 07:00:58;;;;;;;15.33;6.37;;;10.40;99.90;;;;;;5051533;28;20026;-83
2023/04/01 07:03:37;;;;;;;14.80;5.20;;;10.40;99.90;;;;;;5034894;28;20437;-82
2023/04/01 07:06:29;;;;;;;12.07;4.53;;;10.50;99.90;;;;;;5051272;28;20017;-82
2023/04/01 07:09:00;;;;;;;11.83;3.70;;;10.50;99.90;;;;;;5034054;28;20029;-82
2023/04/01 07:11:31;;;;;;;10.07;3.53;;;10.50;99.90;;;;;;5051336;28;20021;-83
2023/04/01 07:14:20;;;;;;;8.43;2.57;;;10.50;99.90;;;;;;5052471;28;20074;-83
2023/04/01 07:17:11;;;;;;;9.55;2.97;;;10.50;99.90;;;;;;5051879;28;20021;-82
2023/04/01 07:20:10;;;;;;;8.53;2.90;;;10.50;99.90;;;;;;5056306;28;20051;-80
2023/04/01 07:22:41;;;;;;;9.43;2.97;;;10.50;99.90;;;;;;5006654;28;20044;-81
2023/04/01 07:25:29;;;;;;;11.23;3.17;;;10.50;99.90;;;;;;5056642;28;20025;-82
2023/04/01 07:28:05;;;;;;;7.87;2.60;;;10.50;99.90;;;;;;5054807;28;20057;-81
2023/04/01 07:31:03;;;;;;;8.90;2.70;;;10.50;99.90;;;;;;5038641;28;20503;-80
2023/04/01 07:33:44;;;;;;;8.03;2.90;;;10.50;99.90;;;;;;4988363;28;20040;-81
2023/04/01 07:36:51;;;;;;;8.67;2.70;;;10.60;99.90;;;;;;5056048;28;20059;-83
2023/04/01 07:39:41;;;;;;;7.50;2.63;;;10.60;99.90;;;;;;5037888;28;20029;-81
2023/04/01 07:42:14;;;;;;;8.67;2.60;;;10.60;99.90;;;;;;5037773;28;20060;-81
2023/04/01 07:44:46;;;;;;;6.55;2.03;;;10.60;99.90;;;;;;5056190;28;20028;-81
2023/04/01 07:47:30;;;;;;;7.43;2.47;;;10.60;99.90;;;;;;5038354;28;20029;-81
2023/04/01 07:50:16;;;;;;;8.30;2.90;;;10.70;99.90;;;;;;5037976;28;20021;-81
2023/04/01 07:52:41;;;;;;;7.60;2.50;;;10.70;99.90;;;;;;5056451;28;20029;-81
2023/04/01 07:55:40;;;;;;;6.70;2.70;;;10.70;99.90;;;;;;5037904;28;20079;-81
2023/04/01 07:58:22;;;;;;;9.02;3.00;;;10.70;99.90;;;;;;4992015;28;20056;-81
2023/04/01 08:00:47;;;;;;;5.88;1.90;;;10.70;99.90;;;;;;5054450;28;20036;-80
2023/04/01 08:03:20;;;;;;;7.05;2.40;;;10.80;99.90;;;;;;5056077;28;20385;-81
2023/04/01 08:06:28;;;;;;;6.30;2.40;;;10.80;99.90;;;;;;5056802;28;20033;-81
2023/04/01 08:09:28;;;;;;;5.87;1.87;;;10.80;99.90;;;;;;4939946;29;20621;-81
2023/04/01 08:12:30;;;;;;;5.60;1.75;;;10.80;99.90;;;;;;4938889;29;20035;-82
2023/04/01 08:15:04;;;;;;;5.10;1.50;;;10.90;99.90;;;;;;5053372;28;20044;-83
2023/04/01 08:17:48;;;;;;;5.93;1.53;;;10.90;99.90;;;;;;5037911;28;20029;-81
2023/04/01 08:20:37;;;;;;;3.17;1.30;;;10.90;99.90;;;;;;5055544;28;20087;-82
2023/04/01 08:23:44;;;;;;;4.35;1.42;;;10.90;99.90;;;;;;5055485;28;20029;-81
2023/04/01 08:26:39;;;;;;;2.83;1.10;;;10.90;99.90;;;;;;4983868;28;20041;-81
2023/04/01 08:29:20;;;;;;;2.42;0.90;;;10.90;99.90;;;;;;5053326;28;20025;-82
2023/04/01 08:32:02;;;;;;;2.92;1.20;;;11.00;99.90;;;;;;5053569;28;20028;-81
2023/04/01 08:34:39;;;;;;;2.90;1.10;;;10.90;99.90;;;;;;5053596;28;20385;-82
2023/04/01 08:37:10;;;;;;;3.83;1.50;;;10.90;99.90;;;;;;5053949;28;20025;-82
2023/04/01 08:39:51;;;;;;;3.42;1.30;;;11.00;99.90;;;;;;5053597;28;20033;-81
2023/04/01 08:42:19;;;;;;;3.58;1.25;;;11.00;99.90;;;;;;5053523;28;20123;-81
2023/04/01 08:45:09;;;;;;;3.83;1.25;;;11.00;99.90;;;;;;5036891;28;20025;-82
2023/04/01 08:47:50;;;;;;;4.55;1.40;;;11.00;99.90;;;;;;5054794;28;20446;-81
2023/04/01 08:50:34;;;;;;;3.95;1.45;;;11.00;99.90;;;;;;5054862;28;20025;-81
2023/04/01 08:53:26;;;;;;;3.60;1.70;;;11.10;99.90;;;;;;5036886;28;20179;-84
2023/04/01 08:56:01;;;;;;;4.22;1.88;;;11.20;99.90;;;;;;5037953;28;20489;-81
2023/04/01 08:58:46;;;;;;;7.80;2.05;;;11.10;99.90;;;;;;5036740;28;20037;-81
2023/04/01 09:01:26;;;;;;;4.55;2.20;;;11.20;99.90;;;;;;5054488;28;20481;-82
2023/04/01 09:04:11;;;;;;;5.50;2.20;;;11.20;99.90;;;;;;5054623;28;20440;-81
2023/04/01 09:07:00;;;;;;;4.15;1.70;;;11.20;99.90;;;;;;5054971;28;20025;-81
2023/04/01 09:09:29;;;;;;;6.28;1.80;;;11.30;99.90;;;;;;5053107;28;20025;-81
2023/04/01 09:12:13;;;;;;;3.90;1.73;;;11.30;99.90;;;;;;5054281;28;20032;-81
2023/04/01 09:15:01;;;;;;;3.45;1.23;;;11.30;99.90;;;;;;5054238;28;20078;-81
2023/04/01 09:17:42;;;;;;;5.10;1.92;;;11.30;99.90;;;;;;5052858;28;20108;-81
2023/04/01 09:20:19;;;;;;;3.65;1.48;;;11.40;99.90;;;;;;5036460;28;20076;-84
2023/04/01 09:23:17;;;;;;;3.22;1.15;;;11.30;99.90;;;;;;5036306;28;20051;-84
2023/04/01 09:26:00;;;;;;;4.63;1.58;;;11.30;99.90;;;;;;5029806;28;20025;-83
2023/04/01 09:29:13;;;;;;;3.63;1.60;;;11.30;99.90;;;;;;5053518;28;20017;-84
2023/04/01 09:32:17;;;;;;;5.20;1.90;;;11.20;99.90;;;;;;5036202;28;20126;-83
2023/04/01 09:35:23;;;;;;;5.18;2.15;;;11.20;99.90;;;;;;5053824;28;20161;-82
2023/04/01 09:38:15;;;;;;;7.95;2.58;;;11.20;99.90;;;;;;5052319;28;20035;-82
2023/04/01 09:40:52;;;;;;;6.72;2.85;;;11.30;99.90;;;;;;5035987;28;20091;-82
2023/04/01 09:43:45;;;;;;;8.00;3.67;;;11.30;99.90;;;;;;5053630;28;20029;-83
2023/04/01 09:46:17;;;;;;;10.65;4.47;;;11.30;99.90;;;;;;5036165;28;20076;-82
2023/04/01 09:49:03;;;;;;;8.07;3.92;;;11.30;99.90;;;;;;5053788;28;20025;-82
2023/04/01 09:51:52;;;;;;;10.75;4.68;;;11.40;99.90;;;;;;5035252;28;20495;-82
2023/04/01 09:54:45;;;;;;;10.65;4.57;;;11.40;99.90;;;;;;5035568;28;20056;-82
2023/04/01 09:57:41;;;;;;;8.93;4.63;;;11.40;99.90;;;;;;5053504;28;20056;-84
2023/04/01 10:00:28;;;;;;;8.93;4.97;;;11.40;99.90;;;;;;5035596;28;20058;-82
2023/04/01 10:03:09;;;;;;;8.82;4.90;;;11.40;99.90;;;;;;5035145;28;20508;-84
2023/04/01 10:05:53;;;;;;;9.48;4.82;;;11.30;99.90;;;;;;5035782;28;20029;-83
2023/04/01 10:08:52;;;;;;;12.40;4.90;;;11.20;99.90;;;;;;5035868;28;20124;-82
2023/04/01 10:11:53;;;;;;;9.57;4.80;;;11.30;99.90;;;;;;5035303;28;20033;-83
2023/04/01 10:14:52;;;;;;;10.43;5.18;;;11.30;99.90;;;;;;5053224;28;20029;-82
2023/04/01 10:17:41;;;;;;;9.40;5.50;;;11.30;99.90;;;;;;5053474;28;20033;-82
2023/04/01 10:20:10;;;;;;;10.63;6.43;;;11.40;99.90;;;;;;5052910;28;20033;-82
2023/04/01 10:22:57;;;;;;;11.70;7.13;;;11.40;99.90;;;;;;5053320;28;20092;-82
2023/04/01 10:25:25;;;;;;;12.77;6.85;;;11.50;99.90;;;;;;5035268;28;20427;-82
2023/04/01 10:28:08;;;;;;;11.88;7.18;;;11.50;99.90;;;;;;5053184;28;20029;-81
2023/04/01 10:30:52;;;;;;;11.52;7.03;;;11.50;99.90;;;;;;5034781;28;20393;-81
2023/04/01 10:33:41;;;;;;;11.38;6.85;;;11.60;99.90;;;;;;5034754;28;20048;-81
2023/04/01 10:36:38;;;;;;;13.57;7.38;;;11.60;99.90;;;;;;5002456;28;20044;-81
2023/04/01 10:39:21;;;;;;;11.90;7.32;;;11.60;99.90;;;;;;5035852;28;20071;-81
2023/04/01 10:42:11;;;;;;;14.63;8.00;;;11.70;99.90;;;;;;5035807;28;20065;-82
2023/04/01 10:45:09;;;;;;;14.27;7.60;;;11.70;99.90;;;;;;5035049;28;20523;-81
2023/04/01 10:48:13;;;;;;;12.18;7.13;;;11.80;99.90;;;;;;5053043;28;20025;-82
2023/04/01 10:51:01;;;;;;;12.18;6.90;;;11.90;99.90;;;;;;5035914;28;20489;-82
2023/04/01 10:53:45;;;;;;;11.18;6.68;;;11.90;99.90;;;;;;5056079;28;20465;-81
2023/04/01 10:56:17;;;;;;;;;;;12.00;99.90;;;;;;5057284;28;20040;-82
2023/04/01 10:58:54;;;;;;;10.68;6.68;;;12.10;99.90;;;;;;5056783;28;19981;-82
2023/04/01 11:01:44;;;;;;;9.02;5.55;;;12.30;99.90;;;;;;5056634;28;20032;-82
2023/04/01 11:04:49;;;;;;;10.88;5.53;;;12.40;99.90;;;;;;5057052;28;20343;-82
2023/04/01 11:07:52;;;;;;;10.10;5.85;;;12.50;99.90;;;;;;5055401;28;20036;-81
2023/04/01 11:10:56;;;;;;;9.93;5.50;;;12.40;99.90;;;;;;5038605;28;20553;-83
2023/04/01 11:13:48;;;;;;;6.85;4.07;;;12.40;99.90;;;;;;5020883;28;20040;-81
2023/04/01 11:16:43;;;;;;;11.75;7.38;;;12.40;99.90;;;;;;5018093;28;20039;-81
2023/04/01 11:19:27;;;;;;;;;;;12.40;99.90;;;;;;5017770;28;20420;-81
2023/04/01 11:22:26;;;;;;;9.68;5.90;;;12.50;99.90;;;;;;5038506;28;20380;-81
2023/04/01 11:25:10;;;;;;;9.38;5.85;;;12.50;99.90;;;;;;5038367;28;20083;-81
2023/04/01 11:28:23;;;;;;;9.27;5.43;;;12.50;99.90;;;;;;5038444;28;20115;-82
2023/04/01 11:31:24;;;;;;;7.78;4.38;;;12.50;99.90;;;;;;5038254;28;20470;-83
2023/04/01 11:34:02;;;;;;;8.10;3.63;;;12.50;99.90;;;;;;4956037;28;20037;-83
2023/04/01 11:37:02;;;;;;;6.03;3.38;;;12.50;99.90;;;;;;5056124;28;20029;-85
2023/04/01 11:40:14;;;;;;;5.07;3.10;;;12.50;99.90;;;;;;5055489;28;20059;-83
2023/04/01 11:42:43;;;;;;;5.65;3.15;;;12.60;99.90;;;;;;5010418;28;20044;-81
2023/04/01 11:45:39;;;;;;;3.85;2.10;;;12.80;99.90;;;;;;5056249;28;20017;-83
2023/04/01 11:48:15;;;;;;;3.80;1.75;;;12.90;99.90;;;;;;5054556;28;20025;-83
2023/04/01 11:50:56;;;;;;;2.83;1.20;;;13.00;99.90;;;;;;5055056;28;20107;-83
2023/04/01 11:53:38;;;;;;;1.83;0.98;;;13.00;99.90;;;;;;5038074;28;20028;-83
2023/04/01 11:56:34;;;;;;;2.47;0.90;;;13.10;99.90;;;;;;5055198;28;20483;-85
2023/04/01 11:59:06;;;;;;;2.50;0.73;;;13.00;99.90;;;;;;5037978;28;20029;-83
2023/04/01 12:02:09;;;;;;;1.30;0.57;;;13.00;99.90;;;;;;5038159;28;20064;-85
2023/04/01 12:05:11;;;;;;;1.45;0.70;;;13.00;99.90;;;;;;5054701;28;20033;-81
2023/04/01 12:08:02;;;;;;;1.30;0.60;;;12.90;99.90;;;;;;5057004;28;20466;-84
2023/04/01 12:11:03;;;;;;;1.80;0.70;;;12.80;99.90;;;;;;5057616;28;20032;-83
2023/04/01 12:13:44;;;;;;;2.47;0.85;;;12.80;99.90;;;;;;5031621;28;20040;-81
2023/04/01 12:16:39;;;;;;;1.15;0.50;;;12.70;99.90;;;;;;5060247;28;20434;-82
2023/04/01 12:19:29;;;;;;;1.73;0.70;;;12.70;99.90;;;;;;5058180;28;20075;-84
2023/04/01 12:21:55;;;;;;;1.65;0.50;;;12.60;99.90;;;;;;5037700;28;20100;-82
2023/04/01 12:24:39;;;;;;;3.47;0.63;;;12.50;99.90;;;;;;5055179;28;20105;-81
2023/04/01 12:27:07;;;;;;;3.42;0.90;;;12.40;99.90;;;;;;5037703;28;20059;-82
2023/04/01 12:30:11;;;;;;;1.42;0.68;;;12.40;99.90;;;;;;5037832;28;20043;-83
2023/04/01 12:33:08;;;;;;;2.63;0.90;;;12.30;99.90;;;;;;5036672;28;20032;-83
2023/04/01 12:35:51;;;;;;;3.55;0.95;;;12.30;99.90;;;;;;5036961;28;20115;-82
2023/04/01 12:38:38;;;;;;;2.83;1.13;;;12.30;99.90;;;;;;5037458;28;20025;-83
2023/04/01 12:41:11;;;;;;;2.17;1.00;;;12.10;99.90;;;;;;5055158;28;20037;-82
2023/04/01 12:43:53;;;;;;;3.33;1.40;;;12.10;99.90;;;;;;5053798;28;20017;-83
2023/04/01 12:46:45;;;;;;;3.40;1.77;;;12.00;99.90;;;;;;5056391;28;20029;-83
2023/04/01 12:49:35;;;;;;;5.45;2.25;;;12.00;99.90;;;;;;5053447;28;20118;-82
2023/04/01 12:52:07;;;;;;;4.05;1.88;;;11.90;99.90;;;;;;5036890;28;20030;-82
2023/04/01 12:54:48;;;;;;;3.88;1.92;;;11.90;99.90;;;;;;5036456;28;20025;-82
2023/04/01 12:57:45;;;;;;;4.63;2.00;;;11.80;99.90;;;;;;5036678;28;20497;-82
2023/04/01 13:00:46;;;;;;;5.50;3.00;;;11.80;99.90;;;;;;5036546;28;20041;-81
2023/04/01 13:03:11;;;;;;;5.65;2.63;;;11.80;99.90;;;;;;5054336;28;20139;-81
2023/04/01 13:06:02;;;;;;;5.30;2.88;;;11.80;99.90;;;;;;5054238;28;20044;-81
2023/04/01 13:08:48;;;;;;;6.45;3.17;;;11.80;99.90;;;;;;5036786;28;20083;-82
2023/04/01 13:11:37;;;;;;;5.45;2.58;;;11.90;99.90;;;;;;5053273;28;20112;-81
2023/04/01 13:14:06;;;;;;;4.43;2.28;;;11.90;99.90;;;;;;5054325;28;20424;-81
2023/04/01 13:16:42;;;;;;;5.65;2.80;;;11.90;99.90;;;;;;5036261;28;20033;-82
2023/04/01 13:19:34;;;;;;;6.20;2.95;;;11.90;99.90;;;;;;5053533;28;20033;-81
2023/04/01 13:22:07;;;;;;;4.80;2.58;;;12.00;99.90;;;;;;5052836;28;20045;-82
2023/04/01 13:24:51;;;;;;;5.53;3.08;;;12.00;99.90;;;;;;5053987;28;20021;-82
2023/04/01 13:27:17;;;;;;;5.47;2.83;;;12.00;99.90;;;;;;5036579;28;20143;-83
2023/04/01 13:30:11;;;;;;;5.53;2.67;;;12.00;99.90;;;;;;5036273;28;20115;-81
2023/04/01 13:32:45;;;;;;;5.53;2.50;;;12.10;99.90;;;;;;5052377;28;20029;-84
2023/04/01 13:35:35;;;;;;;4.90;2.47;;;12.10;99.90;;;;;;5052617;28;20017;-81